Cloud Lake, Florida
Current Conditions -  °F | °C
As of 8:53 AM on Monday 24 Nov 2014 (Local Time) from KPBI Reporting Station
Scattered Clouds Scattered Clouds  
Wind Chill: 82°   Ceiling: Unl
Heat Index: 89°   Visibility: 10mi
Dew Point: 76°   Wind: 12mph
Humidity: 82%   Direction: 200°SSW
Pressure: 30.01"   Gusts: NA
Location:  26.6662°N, 80.0908°W
Report Text: KPBI 241353Z 20010KT 10SM SCT012 SCT025TCU SCT065 28/24 A3001 RMK AO2 SLP162 TCU DSNT E-SE T02780244
Loading
Personal Weather Stations






























Interactive Weather Map New forecast layout! Learn more

10-Day Weather Forecast

Advertisements
Track Severe Weather on mobile